createdAt,value
2022-12-13T00:01:45.148Z,30.93
2022-12-13T00:05:47.974Z,30.10
2022-12-13T00:09:50.715Z,28.83
2022-12-13T00:13:55.720Z,30.27
2022-12-13T00:17:58.435Z,31.50
2022-12-13T00:22:01.124Z,31.13
2022-12-13T00:26:05.294Z,32.43
2022-12-13T00:30:10.340Z,29.17
2022-12-13T00:34:13.036Z,31.23
2022-12-13T00:38:15.748Z,30.83
2022-12-13T00:42:18.458Z,30.70
2022-12-13T00:46:23.383Z,31.30
2022-12-13T00:50:26.196Z,31.80
2022-12-13T00:54:28.912Z,31.10
2022-12-13T00:58:31.841Z,30.60
2022-12-13T01:02:35.947Z,30.33
2022-12-13T01:06:40.405Z,31.50
2022-12-13T01:10:45.041Z,30.97
2022-12-13T01:14:53.068Z,29.80
2022-12-13T01:19:00.034Z,30.90
2022-12-13T01:23:02.799Z,32.90
2022-12-13T01:27:05.961Z,33.37
2022-12-13T01:31:10.318Z,35.57
2022-12-13T01:35:14.742Z,35.47
2022-12-13T01:39:20.598Z,35.33
2022-12-13T01:43:50.415Z,34.60
2022-12-13T01:47:56.661Z,33.20
2022-12-13T01:52:07.624Z,31.20
2022-12-13T01:56:14.611Z,31.30
2022-12-13T02:00:18.886Z,41.80
2022-12-13T02:04:29.466Z,48.10
2022-12-13T02:08:35.832Z,42.40
2022-12-13T02:12:41.867Z,39.37
2022-12-13T02:16:55.612Z,35.30
2022-12-13T02:21:18.773Z,34.30
2022-12-13T02:25:45.318Z,35.63
2022-12-13T02:30:27.108Z,37.47
2022-12-13T02:34:37.629Z,35.77
2022-12-13T02:38:50.165Z,36.17
2022-12-13T02:42:59.750Z,37.40
2022-12-13T02:47:06.661Z,35.03
2022-12-13T02:51:18.597Z,34.77
2022-12-13T02:55:27.808Z,36.30
2022-12-13T02:59:35.352Z,39.40
2022-12-13T03:03:48.962Z,39.30
2022-12-13T03:08:01.776Z,37.00
2022-12-13T03:12:32.050Z,40.43
2022-12-13T03:16:40.445Z,36.43
2022-12-13T03:20:48.442Z,38.30
2022-12-13T03:24:52.972Z,34.13
2022-12-13T03:28:56.195Z,37.43
2022-12-13T03:32:58.919Z,35.27
2022-12-13T03:37:01.655Z,34.67
2022-12-13T03:41:08.544Z,33.00
2022-12-13T03:45:11.738Z,33.30
2022-12-13T03:49:17.270Z,31.20
2022-12-13T03:53:22.662Z,32.70
2022-12-13T03:57:37.131Z,30.17
2022-12-13T04:01:39.935Z,31.23
2022-12-13T04:05:43.516Z,30.43
2022-12-13T04:09:46.256Z,31.57
2022-12-13T04:13:50.312Z,30.20
2022-12-13T04:17:53.085Z,30.93
2022-12-13T04:21:56.025Z,30.43
2022-12-13T04:25:59.923Z,29.73
2022-12-13T04:30:04.682Z,31.43
2022-12-13T04:34:07.495Z,29.93
2022-12-13T04:38:10.279Z,32.97
2022-12-13T04:42:13.433Z,31.90
2022-12-13T04:46:17.532Z,30.13
2022-12-13T04:50:20.307Z,32.27
2022-12-13T04:54:24.023Z,31.53
2022-12-13T04:58:28.474Z,32.67
2022-12-13T05:02:32.980Z,33.23
2022-12-13T05:06:35.762Z,30.63
2022-12-13T05:10:38.687Z,30.80
2022-12-13T05:14:41.417Z,31.30
2022-12-13T05:18:45.563Z,31.30
2022-12-13T05:22:48.237Z,31.80
2022-12-13T05:26:51.575Z,30.70
2022-12-13T05:30:55.087Z,28.97
2022-12-13T05:34:59.210Z,29.30
2022-12-13T05:39:01.926Z,31.20
2022-12-13T05:43:04.725Z,30.63
2022-12-13T05:47:25.319Z,42.13
2022-12-13T05:51:29.491Z,34.00
2022-12-13T05:55:32.303Z,33.83
2022-12-13T05:59:35.045Z,33.70
2022-12-13T06:03:38.261Z,31.33
2022-12-13T06:07:43.591Z,31.03
2022-12-13T06:11:46.327Z,31.80
2022-12-13T06:15:49.071Z,30.33
2022-12-13T06:19:51.936Z,30.83
2022-12-13T06:23:56.085Z,29.77
2022-12-13T06:28:00.743Z,28.10
2022-12-13T06:32:04.992Z,26.63
2022-12-13T06:36:08.751Z,27.53
2022-12-13T06:40:14.534Z,27.03
2022-12-13T06:44:18.582Z,27.50
2022-12-13T06:48:21.325Z,28.80
2022-12-13T06:52:24.031Z,27.57
2022-12-13T06:56:28.106Z,27.20
2022-12-13T07:00:36.986Z,28.10
2022-12-13T07:04:43.665Z,27.60
2022-12-13T07:08:51.423Z,29.43
2022-12-13T07:12:55.489Z,29.97
2022-12-13T07:17:03.628Z,30.10
2022-12-13T07:21:07.515Z,28.00
2022-12-13T07:25:27.027Z,29.47
2022-12-13T07:29:32.822Z,27.10
2022-12-13T07:33:36.387Z,28.03
2022-12-13T07:37:39.125Z,26.83
2022-12-13T07:41:41.783Z,27.90
2022-12-13T07:45:46.293Z,28.67
2022-12-13T07:49:49.027Z,28.80
2022-12-13T07:53:51.785Z,30.50
2022-12-13T07:57:54.500Z,31.60
2022-12-13T08:01:58.659Z,28.57
2022-12-13T08:06:07.249Z,31.27
2022-12-13T08:10:10.338Z,28.97
2022-12-13T08:14:13.299Z,28.47
2022-12-13T08:18:17.413Z,31.87
2022-12-13T08:22:24.189Z,30.80
2022-12-13T08:26:27.086Z,30.33
2022-12-13T08:30:29.956Z,29.47
2022-12-13T08:34:34.094Z,29.93
2022-12-13T08:38:37.725Z,31.00
2022-12-13T08:42:40.483Z,32.13
2022-12-13T08:46:44.223Z,33.43
2022-12-13T08:50:48.325Z,31.50
2022-12-13T08:54:51.101Z,32.43
2022-12-13T08:58:53.840Z,35.57
2022-12-13T09:02:58.307Z,33.23
2022-12-13T09:07:03.075Z,34.40
2022-12-13T09:11:11.211Z,35.87
2022-12-13T09:15:23.496Z,33.80
2022-12-13T09:19:27.040Z,32.37
2022-12-13T09:23:31.187Z,33.07
2022-12-13T09:27:39.732Z,31.00
2022-12-13T09:31:43.880Z,32.20
2022-12-13T09:35:54.906Z,33.87
2022-12-13T09:39:59.035Z,31.37
2022-12-13T09:44:32.611Z,29.80
2022-12-13T09:48:48.345Z,33.40
2022-12-13T09:52:51.643Z,31.07
2022-12-13T09:56:57.539Z,33.60
2022-12-13T10:01:01.022Z,32.63
2022-12-13T10:05:22.783Z,31.70
2022-12-13T10:09:26.844Z,32.40
2022-12-13T10:13:41.574Z,35.47
2022-12-13T10:17:55.433Z,36.00
2022-12-13T10:22:01.601Z,36.20
2022-12-13T10:26:23.891Z,35.63
2022-12-13T10:30:29.498Z,32.83
2022-12-13T10:34:39.200Z,36.47
2022-12-13T10:38:44.164Z,35.97
2022-12-13T10:42:46.907Z,35.37
2022-12-13T10:46:54.073Z,33.93
2022-12-13T10:51:02.686Z,35.33
2022-12-13T10:55:22.995Z,32.90
2022-12-13T10:59:32.504Z,31.87
2022-12-13T11:03:36.847Z,32.73
2022-12-13T11:07:39.947Z,30.53
2022-12-13T11:11:44.233Z,29.60
2022-12-13T11:15:48.000Z,33.27
2022-12-13T11:19:55.383Z,31.13
2022-12-13T11:24:02.298Z,31.60
2022-12-13T11:28:26.863Z,30.97
2022-12-13T11:32:43.386Z,30.57
2022-12-13T11:36:52.946Z,29.93
2022-12-13T11:41:00.081Z,30.13
2022-12-13T11:45:13.537Z,32.03
2022-12-13T11:49:35.916Z,29.80
2022-12-13T11:53:50.717Z,28.77
2022-12-13T11:58:01.305Z,28.63
2022-12-13T12:02:16.855Z,28.63
2022-12-13T12:06:23.600Z,29.67
2022-12-13T12:10:33.214Z,32.43
2022-12-13T12:14:42.742Z,30.67
2022-12-13T12:18:45.571Z,32.73
2022-12-13T12:23:00.096Z,31.57
2022-12-13T12:27:25.823Z,31.60
2022-12-13T12:31:34.367Z,33.23
2022-12-13T12:36:03.314Z,30.43
2022-12-13T12:40:52.247Z,31.80
2022-12-13T12:45:27.089Z,29.20
2022-12-13T12:50:10.401Z,32.57
2022-12-13T12:54:39.981Z,30.10
2022-12-13T12:58:51.430Z,31.20
2022-12-13T13:03:01.798Z,28.17
2022-12-13T13:07:22.364Z,31.17
2022-12-13T13:11:29.845Z,29.57
2022-12-13T13:15:55.499Z,29.47
2022-12-13T13:20:17.603Z,29.03
2022-12-13T13:24:23.508Z,28.97
2022-12-13T13:28:26.458Z,31.33
2022-12-13T13:32:31.609Z,31.00
2022-12-13T13:36:52.536Z,29.03
2022-12-13T13:40:55.472Z,29.60
2022-12-13T13:45:22.424Z,28.60
2022-12-13T13:49:25.592Z,28.53
2022-12-13T13:54:22.344Z,29.23
2022-12-13T13:58:57.141Z,29.27
2022-12-13T14:03:47.538Z,29.37
2022-12-13T14:08:28.467Z,29.30
2022-12-13T14:13:11.020Z,25.30
2022-12-13T14:17:51.365Z,27.70
2022-12-13T14:22:23.580Z,29.03
2022-12-13T14:26:41.803Z,26.07
2022-12-13T14:30:47.956Z,26.53
2022-12-13T14:35:25.377Z,30.57
2022-12-13T14:39:30.989Z,31.20
2022-12-13T14:43:35.366Z,29.43
2022-12-13T14:47:41.462Z,29.37
2022-12-13T14:51:44.840Z,27.37
2022-12-13T14:56:04.515Z,29.33
2022-12-13T15:00:24.329Z,27.37
2022-12-13T15:04:30.323Z,30.80
2022-12-13T15:08:38.248Z,30.93
2022-12-13T15:12:43.960Z,30.80
2022-12-13T15:16:50.126Z,30.80
2022-12-13T15:20:55.202Z,34.47
2022-12-13T15:25:02.509Z,33.07
2022-12-13T15:29:12.104Z,31.93
2022-12-13T15:33:20.518Z,35.00
2022-12-13T15:37:29.771Z,32.83
2022-12-13T15:41:37.604Z,35.93
2022-12-13T15:45:46.495Z,35.50
2022-12-13T15:49:53.323Z,34.27
2022-12-13T15:54:08.251Z,32.73
2022-12-13T15:58:25.613Z,32.37
2022-12-13T16:02:30.127Z,36.43
2022-12-13T16:06:34.458Z,34.57
2022-12-13T16:10:37.495Z,31.90
2022-12-13T16:14:49.572Z,33.03
2022-12-13T16:18:56.747Z,30.37
2022-12-13T16:23:00.167Z,30.57
2022-12-13T16:27:12.107Z,31.40
2022-12-13T16:31:18.076Z,31.67
2022-12-13T16:35:22.874Z,32.80
2022-12-13T16:39:26.258Z,33.90
2022-12-13T16:43:34.281Z,31.80
2022-12-13T16:47:44.713Z,30.60
2022-12-13T16:51:53.323Z,32.43
2022-12-13T16:55:59.195Z,32.93
2022-12-13T17:00:02.556Z,34.83
2022-12-13T17:04:11.876Z,33.93
2022-12-13T17:08:19.907Z,30.87
2022-12-13T17:12:25.808Z,32.67
2022-12-13T17:16:34.977Z,30.90
2022-12-13T17:20:39.963Z,33.87
2022-12-13T17:24:45.312Z,34.80
2022-12-13T17:28:49.469Z,33.03
2022-12-13T17:32:54.630Z,30.07
2022-12-13T17:36:57.777Z,30.27
2022-12-13T17:41:02.038Z,34.27
2022-12-13T17:45:05.926Z,33.57
2022-12-13T17:49:09.104Z,35.83
2022-12-13T17:53:12.718Z,36.63
2022-12-13T17:57:17.376Z,38.17
2022-12-13T18:01:23.538Z,40.93
2022-12-13T18:05:26.913Z,39.03
2022-12-13T18:09:29.970Z,39.50
2022-12-13T18:13:34.243Z,41.80
2022-12-13T18:18:09.387Z,42.10
2022-12-13T18:22:01.753Z,41.97
2022-12-13T18:26:07.594Z,43.27
2022-12-13T18:30:13.358Z,38.77
2022-12-13T18:34:16.862Z,36.90
2022-12-13T18:38:19.588Z,40.57
2022-12-13T18:42:22.674Z,39.37
2022-12-13T18:46:27.756Z,37.73
2022-12-13T18:50:30.895Z,36.40
2022-12-13T18:54:33.912Z,32.83
2022-12-13T18:58:37.287Z,35.47
2022-12-13T19:02:42.141Z,32.97
2022-12-13T19:06:45.033Z,35.33
2022-12-13T19:10:48.963Z,31.63
2022-12-13T19:14:54.618Z,33.40
2022-12-13T19:19:00.007Z,33.27
2022-12-13T19:23:03.617Z,31.00
2022-12-13T19:27:07.077Z,30.70
2022-12-13T19:31:12.269Z,31.20
2022-12-13T19:35:17.967Z,30.60
2022-12-13T19:39:20.769Z,30.90
2022-12-13T19:43:24.781Z,29.90
2022-12-13T19:47:28.321Z,33.20
2022-12-13T19:51:39.528Z,30.90
2022-12-13T19:55:48.243Z,34.57
2022-12-13T19:59:51.641Z,34.93
2022-12-13T20:03:55.883Z,37.07
2022-12-13T20:08:00.238Z,36.20
2022-12-13T20:12:03.058Z,35.40
2022-12-13T20:16:07.294Z,34.60
2022-12-13T20:20:11.774Z,38.47
2022-12-13T20:24:16.586Z,35.47
2022-12-13T20:28:19.650Z,38.17
2022-12-13T20:32:22.696Z,34.77
2022-12-13T20:36:27.910Z,34.37
2022-12-13T20:40:32.182Z,37.23
2022-12-13T20:44:35.316Z,38.17
2022-12-13T20:48:41.426Z,40.67
2022-12-13T20:52:50.570Z,44.40
2022-12-13T20:56:55.923Z,41.67
2022-12-13T21:00:59.262Z,39.37
2022-12-13T21:05:03.528Z,38.13
2022-12-13T21:09:08.267Z,35.47
2022-12-13T21:13:12.412Z,34.33
2022-12-13T21:17:15.754Z,34.23
2022-12-13T21:21:19.763Z,32.63
2022-12-13T21:25:22.816Z,31.57
2022-12-13T21:29:27.782Z,31.37
2022-12-13T21:33:30.768Z,35.10
2022-12-13T21:37:33.610Z,32.13
2022-12-13T21:41:36.769Z,29.97
2022-12-13T21:45:41.595Z,31.07
2022-12-13T21:49:48.436Z,31.40
2022-12-13T21:53:53.929Z,27.57
2022-12-13T21:58:14.441Z,29.33
2022-12-13T22:02:20.167Z,26.70
2022-12-13T22:06:23.153Z,26.67
2022-12-13T22:10:26.142Z,28.67
2022-12-13T22:14:29.991Z,28.07
2022-12-13T22:18:34.103Z,27.60
2022-12-13T22:22:39.339Z,27.93
2022-12-13T22:26:42.258Z,27.33
2022-12-13T22:30:45.374Z,27.47
2022-12-13T22:34:49.907Z,29.10
2022-12-13T22:38:53.123Z,29.23
2022-12-13T22:42:55.983Z,28.43
2022-12-13T22:46:58.944Z,26.93
2022-12-13T22:51:09.037Z,27.33
2022-12-13T22:55:12.672Z,27.20
2022-12-13T22:59:15.598Z,26.70
2022-12-13T23:03:18.590Z,27.73
2022-12-13T23:07:22.987Z,24.83
2022-12-13T23:11:44.227Z,24.60
2022-12-13T23:15:49.525Z,25.37
2022-12-13T23:19:53.154Z,25.60
2022-12-13T23:24:00.238Z,24.47
2022-12-13T23:28:03.304Z,24.50
2022-12-13T23:32:06.454Z,24.03
2022-12-13T23:36:12.540Z,23.43
2022-12-13T23:40:17.880Z,24.87
2022-12-13T23:44:20.809Z,24.63
2022-12-13T23:48:27.061Z,22.83
2022-12-13T23:52:30.223Z,22.63
2022-12-13T23:56:34.937Z,22.97
